Time;durP1;ratioP1;P1;durP2;ratioP2;P2;SDS_P1;SDS_P2;PMS_P1;PMS_P2;Temp;Humidity;BMP_temperature;BMP_pressure;BME280_temperature;BME280_humidity;BME280_pressure;Samples;Min_cycle;Max_cycle;Signal;HPM_P1;HPM_P2
2022/07/06 00:00:25;;;;;;;2.83;1.80;;;;;;;;;;8330127;28;20773;-61
2022/07/06 00:04:25;;;;;;;4.73;1.80;;;;;;;;;;8326288;28;20808;-60
2022/07/06 00:08:26;;;;;;;1.92;1.60;;;;;;;;;;8325628;28;20649;-61
2022/07/06 00:12:26;;;;;;;2.70;1.50;;;;;;;;;;8325068;28;20046;-61
2022/07/06 00:16:26;;;;;;;3.70;1.77;;;;;;;;;;8323634;28;20069;-60
2022/07/06 00:20:26;;;;;;;2.67;1.67;;;;;;;;;;8325292;28;20063;-60
2022/07/06 00:24:26;;;;;;;4.88;1.90;;;;;;;;;;8322397;28;20048;-60
2022/07/06 00:28:27;;;;;;;3.28;1.70;;;;;;;;;;8324427;28;20091;-60
2022/07/06 00:32:27;;;;;;;3.75;1.60;;;;;;;;;;8322304;28;20045;-60
2022/07/06 00:36:27;;;;;;;3.88;1.52;;;;;;;;;;8325161;28;20025;-61
2022/07/06 00:40:29;;;;;;;2.50;1.70;;;;;;;;;;8319911;28;20359;-61
2022/07/06 00:44:30;;;;;;;3.80;1.58;;;;;;;;;;8324543;28;20021;-60
2022/07/06 00:48:31;;;;;;;2.95;1.80;;;;;;;;;;8322500;28;20894;-60
2022/07/06 00:52:31;;;;;;;3.70;1.50;;;;;;;;;;8327999;28;20112;-60
2022/07/06 00:56:31;;;;;;;4.18;1.60;;;;;;;;;;8323121;28;20459;-61
2022/07/06 01:00:32;;;;;;;3.05;1.50;;;;;;;;;;8322908;28;20032;-60
2022/07/06 01:04:32;;;;;;;2.92;1.25;;;;;;;;;;8319868;28;20103;-60
2022/07/06 01:08:32;;;;;;;3.95;1.52;;;;;;;;;;8323516;28;20299;-60
2022/07/06 01:12:36;;;;;;;2.75;1.30;;;;;;;;;;8319188;28;20292;-61
2022/07/06 01:16:36;;;;;;;;;;;;;;;;;;8321311;28;20158;-61
2022/07/06 01:20:36;;;;;;;3.15;1.63;;;;;;;;;;8322784;28;19962;-61
2022/07/06 01:24:37;;;;;;;3.78;1.52;;;;;;;;;;8320411;28;20033;-60
2022/07/06 01:28:38;;;;;;;6.13;1.50;;;;;;;;;;8323467;28;20056;-60
2022/07/06 01:32:38;;;;;;;3.63;1.40;;;;;;;;;;8323365;28;20085;-60
2022/07/06 01:36:38;;;;;;;2.60;1.48;;;;;;;;;;8322825;28;20127;-61
2022/07/06 01:40:39;;;;;;;5.60;1.38;;;;;;;;;;8320764;28;20076;-60
2022/07/06 01:44:39;;;;;;;4.67;1.43;;;;;;;;;;8324294;28;20052;-61
2022/07/06 01:48:39;;;;;;;3.63;1.40;;;;;;;;;;8321587;28;20037;-60
2022/07/06 01:52:39;;;;;;;2.30;1.30;;;;;;;;;;8322390;28;20054;-60
2022/07/06 01:56:40;;;;;;;3.53;1.58;;;;;;;;;;8321691;28;20025;-60
2022/07/06 02:00:40;;;;;;;1.77;1.25;;;;;;;;;;8320103;28;20320;-60
2022/07/06 02:04:41;;;;;;;2.17;1.50;;;;;;;;;;8322812;28;20044;-61
2022/07/06 02:08:41;;;;;;;5.13;1.50;;;;;;;;;;8308600;28;20095;-60
2022/07/06 02:12:41;;;;;;;1.45;1.20;;;;;;;;;;8323616;28;20036;-61
2022/07/06 02:16:42;;;;;;;2.10;1.27;;;;;;;;;;8318771;28;20029;-60
2022/07/06 02:20:42;;;;;;;3.22;1.42;;;;;;;;;;8318304;28;20061;-60
2022/07/06 02:24:42;;;;;;;4.28;1.45;;;;;;;;;;8319459;28;20594;-60
2022/07/06 02:28:42;;;;;;;2.95;1.38;;;;;;;;;;8324833;28;20112;-61
2022/07/06 02:32:43;;;;;;;4.23;1.30;;;;;;;;;;8319477;28;20502;-60
2022/07/06 02:36:43;;;;;;;4.10;1.17;;;;;;;;;;8322317;28;20071;-60
2022/07/06 02:40:43;;;;;;;1.98;1.20;;;;;;;;;;8325108;28;20984;-61
2022/07/06 02:44:43;;;;;;;1.38;1.15;;;;;;;;;;8324173;28;20567;-60
2022/07/06 02:48:43;;;;;;;3.25;1.80;;;;;;;;;;8324226;28;20049;-61
2022/07/06 02:52:44;;;;;;;4.40;1.40;;;;;;;;;;8328890;28;20082;-60
2022/07/06 02:56:47;;;;;;;3.55;1.45;;;;;;;;;;8326238;28;20998;-61
2022/07/06 03:00:48;;;;;;;;;;;;;;;;;;8325790;28;20036;-60
2022/07/06 03:04:48;;;;;;;2.22;1.15;;;;;;;;;;8324637;28;19912;-61
2022/07/06 03:08:48;;;;;;;2.55;1.40;;;;;;;;;;8325310;28;20031;-59
2022/07/06 03:12:48;;;;;;;3.78;1.33;;;;;;;;;;8323404;28;20113;-60
2022/07/06 03:16:48;;;;;;;3.28;1.40;;;;;;;;;;8327438;28;20521;-60
2022/07/06 03:20:48;;;;;;;5.07;1.33;;;;;;;;;;8326803;28;20028;-60
2022/07/06 03:24:49;;;;;;;2.97;1.40;;;;;;;;;;8323746;28;20033;-60
2022/07/06 03:28:49;;;;;;;2.17;1.30;;;;;;;;;;8320831;28;20044;-59
2022/07/06 03:32:49;;;;;;;1.50;1.20;;;;;;;;;;8324512;28;20037;-60
2022/07/06 03:36:50;;;;;;;4.18;1.40;;;;;;;;;;8324250;28;20023;-61
2022/07/06 03:40:50;;;;;;;2.40;1.27;;;;;;;;;;8327122;28;20113;-60
2022/07/06 03:44:50;;;;;;;3.75;1.30;;;;;;;;;;8323930;28;20033;-61
2022/07/06 03:48:50;;;;;;;3.78;1.58;;;;;;;;;;8320408;28;20047;-61
2022/07/06 03:52:50;;;;;;;2.87;1.43;;;;;;;;;;8323785;28;20020;-60
2022/07/06 03:56:51;;;;;;;5.18;2.20;;;;;;;;;;8326424;28;20285;-60
2022/07/06 04:00:51;;;;;;;7.93;1.40;;;;;;;;;;8322582;28;20039;-60
2022/07/06 04:04:51;;;;;;;4.60;1.45;;;;;;;;;;8327194;28;20027;-60
2022/07/06 04:08:51;;;;;;;3.42;1.40;;;;;;;;;;8323703;28;20021;-66
2022/07/06 04:12:52;;;;;;;3.13;1.50;;;;;;;;;;8323970;28;20433;-61
2022/07/06 04:16:52;;;;;;;3.38;1.60;;;;;;;;;;8321861;28;20501;-61
2022/07/06 04:20:52;;;;;;;1.52;1.38;;;;;;;;;;8324175;28;20025;-60
2022/07/06 04:24:52;;;;;;;2.00;1.42;;;;;;;;;;8324315;28;20033;-61
2022/07/06 04:28:53;;;;;;;3.60;1.53;;;;;;;;;;8321988;28;20032;-61
2022/07/06 04:32:53;;;;;;;4.70;1.63;;;;;;;;;;8325726;28;20332;-60
2022/07/06 04:36:53;;;;;;;6.40;1.40;;;;;;;;;;8326979;28;20108;-60
2022/07/06 04:40:53;;;;;;;2.90;1.45;;;;;;;;;;8324367;28;20025;-59
2022/07/06 04:44:53;;;;;;;6.57;1.40;;;;;;;;;;8327199;28;20025;-59
2022/07/06 04:48:54;;;;;;;3.03;1.30;;;;;;;;;;8316977;28;20049;-60
2022/07/06 04:52:54;;;;;;;2.42;1.48;;;;;;;;;;8322791;28;20033;-60
2022/07/06 04:56:54;;;;;;;7.40;1.80;;;;;;;;;;8325691;28;20056;-60
2022/07/06 05:00:54;;;;;;;4.07;1.60;;;;;;;;;;8328401;28;20276;-60
2022/07/06 05:04:55;;;;;;;4.40;1.95;;;;;;;;;;8322927;28;20689;-60
2022/07/06 05:08:55;;;;;;;3.85;1.70;;;;;;;;;;8320251;28;20030;-60
2022/07/06 05:12:55;;;;;;;5.03;2.00;;;;;;;;;;8324426;28;20020;-59
2022/07/06 05:16:55;;;;;;;4.07;1.90;;;;;;;;;;8321458;28;20060;-60
2022/07/06 05:20:56;;;;;;;4.75;2.20;;;;;;;;;;8326687;28;20036;-60
2022/07/06 05:24:56;;;;;;;3.83;1.70;;;;;;;;;;8323685;28;20039;-60
2022/07/06 05:28:56;;;;;;;6.20;1.80;;;;;;;;;;8323416;28;20032;-60
2022/07/06 05:32:56;;;;;;;3.33;1.70;;;;;;;;;;8319296;28;20036;-61
2022/07/06 05:36:56;;;;;;;5.47;1.90;;;;;;;;;;8322857;28;21566;-62
2022/07/06 05:40:57;;;;;;;4.68;1.40;;;;;;;;;;8320643;28;20029;-61
2022/07/06 05:44:57;;;;;;;2.05;1.33;;;;;;;;;;8320247;28;20060;-62
2022/07/06 05:53:16;;;;;;;3.20;1.30;;;;;;;;;;8320192;28;20040;-60
2022/07/06 05:57:17;;;;;;;4.68;1.40;;;;;;;;;;8321220;28;20133;-61
2022/07/06 06:01:18;;;;;;;4.00;1.58;;;;;;;;;;8323174;28;20037;-61
2022/07/06 06:05:18;;;;;;;3.45;1.30;;;;;;;;;;8323529;28;20033;-61
2022/07/06 06:09:18;;;;;;;2.92;1.23;;;;;;;;;;8324389;28;20034;-61
2022/07/06 06:13:19;;;;;;;3.85;1.27;;;;;;;;;;8323755;28;20036;-61
2022/07/06 06:17:19;;;;;;;2.60;1.40;;;;;;;;;;8317784;28;20037;-61
2022/07/06 06:21:19;;;;;;;2.47;1.20;;;;;;;;;;8320759;28;20033;-61
2022/07/06 06:25:21;;;;;;;4.20;1.42;;;;;;;;;;8320518;28;20039;-61
2022/07/06 06:29:21;;;;;;;3.30;1.10;;;;;;;;;;8323210;28;20060;-61
2022/07/06 06:33:22;;;;;;;2.30;1.10;;;;;;;;;;8319195;28;20029;-61
2022/07/06 06:37:22;;;;;;;3.45;1.15;;;;;;;;;;8322770;28;20830;-61
2022/07/06 06:41:22;;;;;;;3.40;1.10;;;;;;;;;;8319952;28;20033;-60
2022/07/06 06:45:22;;;;;;;3.90;1.10;;;;;;;;;;8319891;28;20044;-61
2022/07/06 06:49:22;;;;;;;2.97;1.30;;;;;;;;;;8321695;28;20037;-60
2022/07/06 06:53:23;;;;;;;5.18;1.35;;;;;;;;;;8320405;28;20039;-61
2022/07/06 06:57:23;;;;;;;6.07;1.37;;;;;;;;;;8319615;28;20017;-60
2022/07/06 07:01:23;;;;;;;3.95;1.30;;;;;;;;;;8317638;28;20041;-62
2022/07/06 07:05:23;;;;;;;2.50;1.42;;;;;;;;;;8320652;28;20032;-61
2022/07/06 07:09:24;;;;;;;1.90;1.20;;;;;;;;;;8320504;28;20453;-62
2022/07/06 07:13:24;;;;;;;3.63;1.10;;;;;;;;;;8317626;28;20056;-61
2022/07/06 07:17:24;;;;;;;2.08;1.20;;;;;;;;;;8315166;28;20062;-62
2022/07/06 07:21:24;;;;;;;1.00;0.88;;;;;;;;;;8318199;28;20442;-61
2022/07/06 07:25:25;;;;;;;2.80;1.20;;;;;;;;;;8321574;28;20090;-61
2022/07/06 07:29:25;;;;;;;3.17;1.38;;;;;;;;;;8324386;28;20036;-62
2022/07/06 07:33:25;;;;;;;3.15;1.20;;;;;;;;;;8322634;28;20037;-61
2022/07/06 07:37:25;;;;;;;3.10;1.27;;;;;;;;;;8323722;28;20212;-61
2022/07/06 07:41:25;;;;;;;3.20;1.02;;;;;;;;;;8324842;28;20021;-62
2022/07/06 07:45:26;;;;;;;2.80;1.25;;;;;;;;;;8321620;28;20596;-61
2022/07/06 07:49:26;;;;;;;2.13;1.10;;;;;;;;;;8323608;28;20562;-61
2022/07/06 07:53:26;;;;;;;2.33;1.20;;;;;;;;;;8323902;28;20029;-61
2022/07/06 07:57:27;;;;;;;5.47;1.43;;;;;;;;;;8324349;28;20181;-62
2022/07/06 08:01:27;;;;;;;1.42;0.93;;;;;;;;;;8323235;28;20037;-61
2022/07/06 08:05:27;;;;;;;2.38;1.10;;;;;;;;;;8326873;28;20067;-62
2022/07/06 08:09:27;;;;;;;2.25;1.10;;;;;;;;;;8324006;28;20095;-61
2022/07/06 08:13:27;;;;;;;2.70;1.20;;;;;;;;;;8323009;28;20105;-61
2022/07/06 08:17:28;;;;;;;4.70;1.30;;;;;;;;;;8319618;28;20041;-61
2022/07/06 08:21:28;;;;;;;1.63;1.00;;;;;;;;;;8322523;28;20625;-62
2022/07/06 08:25:28;;;;;;;1.85;1.10;;;;;;;;;;8320874;28;20615;-61
2022/07/06 08:29:29;;;;;;;1.60;1.00;;;;;;;;;;8322965;28;20093;-61
2022/07/06 08:33:29;;;;;;;2.85;1.02;;;;;;;;;;8321578;28;20041;-61
2022/07/06 08:37:29;;;;;;;1.48;1.00;;;;;;;;;;8321238;28;20055;-61
2022/07/06 08:41:30;;;;;;;1.77;1.10;;;;;;;;;;8321959;28;20032;-61
2022/07/06 08:45:30;;;;;;;4.43;1.20;;;;;;;;;;8320710;28;20057;-61
2022/07/06 08:49:31;;;;;;;3.40;1.10;;;;;;;;;;8319810;28;20029;-63
2022/07/06 08:53:31;;;;;;;1.58;0.93;;;;;;;;;;8323832;28;20093;-61
2022/07/06 08:57:31;;;;;;;2.08;1.30;;;;;;;;;;8322750;28;20021;-61
2022/07/06 09:01:32;;;;;;;2.42;1.13;;;;;;;;;;8320860;28;20037;-61
2022/07/06 09:05:32;;;;;;;1.58;1.27;;;;;;;;;;8318180;28;20020;-61
2022/07/06 09:09:32;;;;;;;1.40;1.00;;;;;;;;;;8324225;28;20048;-61
2022/07/06 09:13:33;;;;;;;2.08;1.20;;;;;;;;;;8319596;28;20557;-61
2022/07/06 09:17:37;;;;;;;2.25;1.10;;;;;;;;;;8323324;28;20044;-61
2022/07/06 09:21:37;;;;;;;1.30;0.98;;;;;;;;;;8322428;28;20723;-61
2022/07/06 09:25:37;;;;;;;3.17;1.02;;;;;;;;;;8319809;28;20036;-61
2022/07/06 09:29:38;;;;;;;1.45;1.08;;;;;;;;;;8320440;28;20057;-61
2022/07/06 09:33:38;;;;;;;1.20;0.90;;;;;;;;;;8321707;28;20068;-61
2022/07/06 09:37:38;;;;;;;3.53;1.13;;;;;;;;;;8323367;28;20135;-65
2022/07/06 09:41:39;;;;;;;1.42;1.10;;;;;;;;;;8320717;28;20029;-61
2022/07/06 09:45:40;;;;;;;2.33;1.00;;;;;;;;;;8323198;28;20095;-61
2022/07/06 09:49:40;;;;;;;2.35;1.00;;;;;;;;;;8319848;28;20330;-61
2022/07/06 09:53:41;;;;;;;1.07;0.97;;;;;;;;;;8321440;28;20536;-60
2022/07/06 09:57:51;;;;;;;1.98;0.90;;;;;;;;;;8320161;28;20028;-61
2022/07/06 10:01:53;;;;;;;1.60;0.90;;;;;;;;;;8320894;28;20342;-61
2022/07/06 10:05:54;;;;;;;1.30;0.80;;;;;;;;;;8319895;28;20929;-61
2022/07/06 10:09:54;;;;;;;1.38;0.80;;;;;;;;;;8319338;28;20640;-61
2022/07/06 10:13:56;;;;;;;3.80;1.17;;;;;;;;;;8320031;28;20033;-62
2022/07/06 10:17:56;;;;;;;2.55;1.10;;;;;;;;;;8322394;28;20052;-62
2022/07/06 10:21:58;;;;;;;2.42;1.17;;;;;;;;;;8319266;28;20579;-61
2022/07/06 10:25:58;;;;;;;1.08;0.98;;;;;;;;;;8319144;28;20651;-61
2022/07/06 10:29:58;;;;;;;1.33;1.00;;;;;;;;;;8324137;28;20025;-61
2022/07/06 10:34:00;;;;;;;3.42;1.10;;;;;;;;;;8307553;28;20040;-60
2022/07/06 10:38:04;;;;;;;1.53;1.23;;;;;;;;;;8321274;28;20013;-61
2022/07/06 10:42:04;;;;;;;1.58;1.42;;;;;;;;;;8318528;28;20279;-61
2022/07/06 10:46:05;;;;;;;3.28;1.33;;;;;;;;;;8317197;28;20140;-60
2022/07/06 10:50:06;;;;;;;3.88;1.50;;;;;;;;;;8320817;28;20025;-61
2022/07/06 10:54:07;;;;;;;2.33;1.50;;;;;;;;;;8320381;28;20033;-60
2022/07/06 10:58:07;;;;;;;2.90;1.77;;;;;;;;;;8318332;28;20386;-60
2022/07/06 11:02:11;;;;;;;1.67;1.52;;;;;;;;;;8316529;28;20029;-60
2022/07/06 11:06:12;;;;;;;3.30;1.75;;;;;;;;;;8318837;28;20533;-62
2022/07/06 11:10:13;;;;;;;2.65;1.40;;;;;;;;;;8320288;28;20025;-60
2022/07/06 11:14:14;;;;;;;1.67;1.07;;;;;;;;;;8321490;28;20025;-61
2022/07/06 11:18:18;;;;;;;1.17;1.00;;;;;;;;;;8320487;28;20039;-60
2022/07/06 11:22:19;;;;;;;1.75;1.10;;;;;;;;;;8321316;28;20027;-61
2022/07/06 11:26:21;;;;;;;3.33;1.13;;;;;;;;;;8322852;28;20266;-60
2022/07/06 11:30:21;;;;;;;3.00;1.10;;;;;;;;;;8320826;28;20029;-61
2022/07/06 11:34:23;;;;;;;2.57;1.10;;;;;;;;;;8326728;28;20556;-61
2022/07/06 11:38:27;;;;;;;3.90;1.00;;;;;;;;;;8329025;28;20018;-61
2022/07/06 11:42:27;;;;;;;1.10;0.88;;;;;;;;;;8325002;28;20870;-61
2022/07/06 11:46:28;;;;;;;0.82;0.80;;;;;;;;;;8324693;28;20143;-61
2022/07/06 11:50:28;;;;;;;2.23;1.00;;;;;;;;;;8322408;28;20087;-61
2022/07/06 11:54:29;;;;;;;1.55;0.85;;;;;;;;;;8324662;28;20136;-61
2022/07/06 11:58:31;;;;;;;4.17;0.90;;;;;;;;;;8324369;28;20059;-60
2022/07/06 12:02:31;;;;;;;2.60;1.00;;;;;;;;;;8323823;28;20037;-61
2022/07/06 12:06:31;;;;;;;2.78;1.10;;;;;;;;;;8329036;28;20032;-61
2022/07/06 12:10:37;;;;;;;2.90;1.02;;;;;;;;;;8321870;28;20032;-61
2022/07/06 12:14:38;;;;;;;3.08;1.02;;;;;;;;;;8317516;28;20052;-60
2022/07/06 12:18:39;;;;;;;1.33;1.00;;;;;;;;;;8317774;28;20040;-60
2022/07/06 12:22:39;;;;;;;2.75;0.85;;;;;;;;;;8326085;28;20025;-60
2022/07/06 12:26:40;;;;;;;2.95;1.00;;;;;;;;;;8325057;28;20035;-60
2022/07/06 12:30:46;;;;;;;1.48;0.93;;;;;;;;;;8323339;28;20057;-60
2022/07/06 12:34:46;;;;;;;3.28;1.10;;;;;;;;;;8322471;28;20064;-60
2022/07/06 12:38:47;;;;;;;0.93;0.80;;;;;;;;;;8326233;28;20020;-61
2022/07/06 12:42:48;;;;;;;1.88;1.13;;;;;;;;;;8324735;28;20197;-61
2022/07/06 12:46:49;;;;;;;2.25;1.17;;;;;;;;;;8323071;28;20036;-60
2022/07/06 12:50:49;;;;;;;1.33;0.80;;;;;;;;;;8321562;28;20090;-60
2022/07/06 12:54:51;;;;;;;0.90;0.90;;;;;;;;;;8319856;28;20024;-61
2022/07/06 12:58:58;;;;;;;1.27;1.05;;;;;;;;;;8324844;28;20542;-60
2022/07/06 13:02:58;;;;;;;1.27;1.02;;;;;;;;;;8322902;28;20756;-61
2022/07/06 13:07:01;;;;;;;1.90;1.05;;;;;;;;;;8324538;28;20489;-61
2022/07/06 13:11:01;;;;;;;;;;;;;;;;;;8322209;28;20063;-61
2022/07/06 13:15:01;;;;;;;3.25;0.90;;;;;;;;;;8324257;28;19974;-60
2022/07/06 13:19:02;;;;;;;5.45;1.10;;;;;;;;;;8323816;28;20472;-60
2022/07/06 13:23:02;;;;;;;1.27;1.10;;;;;;;;;;8323003;28;20025;-61
2022/07/06 13:27:02;;;;;;;1.45;1.27;;;;;;;;;;8327177;28;20062;-61
2022/07/06 13:31:02;;;;;;;2.23;1.00;;;;;;;;;;8319819;28;20036;-60
2022/07/06 13:35:03;;;;;;;3.40;1.13;;;;;;;;;;8320218;28;20277;-60
2022/07/06 13:39:03;;;;;;;1.17;0.97;;;;;;;;;;8321301;28;20167;-60
2022/07/06 13:43:04;;;;;;;2.42;0.95;;;;;;;;;;8323983;28;20025;-60
2022/07/06 13:47:04;;;;;;;3.55;1.10;;;;;;;;;;8315870;28;20063;-60
2022/07/06 13:51:04;;;;;;;1.27;0.90;;;;;;;;;;8320126;28;20020;-61
2022/07/06 13:55:06;;;;;;;1.60;0.90;;;;;;;;;;8320769;28;20039;-61
2022/07/06 13:59:06;;;;;;;5.35;1.35;;;;;;;;;;8316095;28;20025;-60
2022/07/06 14:03:06;;;;;;;2.50;0.90;;;;;;;;;;8315716;28;20072;-61
2022/07/06 14:07:07;;;;;;;2.15;0.88;;;;;;;;;;8320969;28;20127;-61
2022/07/06 14:11:08;;;;;;;2.30;1.00;;;;;;;;;;8315839;28;20517;-60
2022/07/06 14:15:08;;;;;;;1.67;1.00;;;;;;;;;;8318455;28;20555;-60
2022/07/06 14:19:08;;;;;;;0.93;0.80;;;;;;;;;;8320585;28;20409;-61
2022/07/06 14:23:08;;;;;;;2.08;0.90;;;;;;;;;;8319173;28;20094;-61
2022/07/06 14:27:09;;;;;;;2.15;0.65;;;;;;;;;;8318437;28;20021;-61
2022/07/06 14:31:09;;;;;;;2.30;0.90;;;;;;;;;;8318502;28;20055;-61
2022/07/06 14:35:10;;;;;;;0.80;0.80;;;;;;;;;;8316548;28;20033;-62
2022/07/06 14:39:11;;;;;;;1.40;0.80;;;;;;;;;;8327091;28;20029;-61
2022/07/06 14:43:12;;;;;;;1.87;0.83;;;;;;;;;;8329898;28;20052;-61
2022/07/06 14:47:12;;;;;;;1.45;0.90;;;;;;;;;;8326630;28;20036;-60
2022/07/06 14:51:12;;;;;;;1.42;0.80;;;;;;;;;;8327142;28;20037;-61
2022/07/06 14:55:12;;;;;;;1.45;0.90;;;;;;;;;;8326519;28;20098;-60
2022/07/06 14:59:13;;;;;;;2.43;0.80;;;;;;;;;;8327827;28;20079;-60
2022/07/06 15:03:13;;;;;;;1.20;0.87;;;;;;;;;;8329321;28;20091;-60
2022/07/06 15:07:13;;;;;;;4.78;0.85;;;;;;;;;;8330018;28;20024;-61
2022/07/06 15:11:13;;;;;;;1.35;0.80;;;;;;;;;;8325479;28;20739;-60
2022/07/06 15:15:14;;;;;;;2.87;0.90;;;;;;;;;;8323177;28;20132;-61
2022/07/06 15:19:15;;;;;;;2.33;0.80;;;;;;;;;;8323769;28;20851;-61
2022/07/06 15:23:15;;;;;;;3.22;0.80;;;;;;;;;;8328017;28;20055;-60
2022/07/06 15:27:15;;;;;;;7.68;1.63;;;;;;;;;;8327598;28;20037;-60
2022/07/06 15:31:15;;;;;;;1.80;0.90;;;;;;;;;;8323127;28;21072;-60
2022/07/06 15:35:15;;;;;;;1.27;0.70;;;;;;;;;;8327851;28;20427;-61
2022/07/06 15:39:16;;;;;;;6.87;0.93;;;;;;;;;;8322334;28;20708;-61
2022/07/06 15:43:16;;;;;;;1.45;0.80;;;;;;;;;;8322188;28;20021;-61
2022/07/06 15:47:17;;;;;;;2.20;0.70;;;;;;;;;;8323234;28;20045;-60
2022/07/06 15:51:17;;;;;;;1.45;0.70;;;;;;;;;;8324812;28;20029;-60
2022/07/06 15:55:18;;;;;;;1.73;0.70;;;;;;;;;;8323510;28;20032;-61
2022/07/06 15:59:18;;;;;;;2.73;0.70;;;;;;;;;;8327979;28;20027;-60
2022/07/06 16:03:18;;;;;;;1.83;0.77;;;;;;;;;;8319988;28;20048;-60
2022/07/06 16:07:18;;;;;;;3.22;0.80;;;;;;;;;;8325910;28;20051;-60
2022/07/06 16:11:19;;;;;;;0.60;0.60;;;;;;;;;;8327109;28;20028;-60
2022/07/06 16:15:19;;;;;;;2.40;0.80;;;;;;;;;;8327144;28;21014;-61
2022/07/06 16:19:19;;;;;;;1.40;0.70;;;;;;;;;;8319583;28;20035;-60
2022/07/06 16:23:19;;;;;;;0.68;0.68;;;;;;;;;;8326419;28;20556;-60
2022/07/06 16:27:20;;;;;;;1.90;0.80;;;;;;;;;;8323866;28;20025;-60
2022/07/06 16:31:20;;;;;;;1.50;0.80;;;;;;;;;;8321685;28;20845;-60
2022/07/06 16:35:22;;;;;;;1.60;0.70;;;;;;;;;;8325176;28;20033;-61
2022/07/06 16:39:22;;;;;;;2.10;0.77;;;;;;;;;;8323818;28;20493;-60
2022/07/06 16:43:23;;;;;;;1.40;0.70;;;;;;;;;;8323147;28;20609;-60
2022/07/06 16:47:23;;;;;;;4.60;0.82;;;;;;;;;;8318672;28;20948;-61
2022/07/06 16:51:23;;;;;;;1.80;0.90;;;;;;;;;;8320081;28;20834;-61
2022/07/06 16:55:24;;;;;;;1.80;0.93;;;;;;;;;;8323181;28;20025;-61
2022/07/06 16:59:24;;;;;;;1.95;0.70;;;;;;;;;;8323628;28;20120;-60
2022/07/06 17:03:25;;;;;;;0.80;0.70;;;;;;;;;;8316469;28;20126;-60
2022/07/06 17:07:25;;;;;;;3.00;1.00;;;;;;;;;;8320774;28;20151;-60
2022/07/06 17:11:25;;;;;;;1.45;0.85;;;;;;;;;;8321869;28;20555;-62
2022/07/06 17:15:26;;;;;;;1.67;0.70;;;;;;;;;;8323888;28;20087;-60
2022/07/06 17:19:26;;;;;;;2.15;0.82;;;;;;;;;;8321253;28;20035;-60
2022/07/06 17:23:26;;;;;;;1.85;0.90;;;;;;;;;;8320502;28;20044;-61
2022/07/06 17:27:26;;;;;;;1.95;0.88;;;;;;;;;;8322817;28;20024;-61
2022/07/06 17:31:26;;;;;;;4.05;0.90;;;;;;;;;;8321403;28;20041;-60
2022/07/06 17:35:27;;;;;;;3.08;1.00;;;;;;;;;;8321380;28;20020;-61
2022/07/06 17:39:27;;;;;;;1.05;0.90;;;;;;;;;;8323179;28;20616;-62
2022/07/06 17:43:27;;;;;;;2.85;0.82;;;;;;;;;;8318162;28;20048;-62
2022/07/06 17:47:28;;;;;;;0.70;0.70;;;;;;;;;;8313831;28;20041;-61
2022/07/06 17:51:28;;;;;;;0.90;0.80;;;;;;;;;;8318763;28;20032;-61
2022/07/06 17:55:28;;;;;;;1.17;0.90;;;;;;;;;;8319268;28;20159;-60
2022/07/06 17:59:51;;;;;;;3.13;0.80;;;;;;;;;;8322001;28;20021;-61
2022/07/06 18:03:51;;;;;;;1.42;0.73;;;;;;;;;;8326727;28;20353;-61
2022/07/06 18:07:51;;;;;;;2.20;0.82;;;;;;;;;;8312151;28;20028;-60
2022/07/06 18:11:52;;;;;;;1.55;0.70;;;;;;;;;;8310646;28;20025;-60
2022/07/06 18:15:52;;;;;;;1.00;0.70;;;;;;;;;;8311192;28;20116;-60
2022/07/06 18:19:53;;;;;;;1.90;0.60;;;;;;;;;;8313935;28;20615;-61
2022/07/06 18:23:53;;;;;;;0.80;0.80;;;;;;;;;;8311865;28;20694;-61
2022/07/06 18:27:53;;;;;;;1.33;0.70;;;;;;;;;;8309303;28;20622;-61
2022/07/06 18:31:54;;;;;;;1.33;0.63;;;;;;;;;;8307258;28;20056;-61
2022/07/06 18:35:55;;;;;;;0.50;0.50;;;;;;;;;;8310869;28;20032;-61
2022/07/06 18:39:55;;;;;;;1.23;0.88;;;;;;;;;;8311297;28;21515;-61
2022/07/06 18:43:55;;;;;;;1.58;0.80;;;;;;;;;;8310783;28;20499;-61
2022/07/06 18:47:55;;;;;;;2.03;0.80;;;;;;;;;;8308650;28;21810;-60
2022/07/06 18:51:56;;;;;;;2.07;0.63;;;;;;;;;;8311667;28;20033;-61
2022/07/06 18:55:56;;;;;;;1.08;0.63;;;;;;;;;;8310236;28;20118;-60
2022/07/06 18:59:57;;;;;;;1.05;0.70;;;;;;;;;;8310015;28;20108;-60
2022/07/06 19:03:57;;;;;;;1.67;0.70;;;;;;;;;;8308369;28;20160;-61
2022/07/06 19:07:57;;;;;;;1.42;0.70;;;;;;;;;;8312083;28;20080;-60
2022/07/06 19:11:58;;;;;;;1.58;0.63;;;;;;;;;;8308512;28;20020;-60
2022/07/06 19:15:58;;;;;;;0.82;0.70;;;;;;;;;;8305674;28;20528;-60
2022/07/06 19:19:58;;;;;;;2.23;0.80;;;;;;;;;;8307843;28;20051;-60
2022/07/06 19:23:58;;;;;;;1.70;0.80;;;;;;;;;;8310729;28;20619;-60
2022/07/06 19:27:59;;;;;;;1.70;0.70;;;;;;;;;;8316809;28;20525;-60
2022/07/06 19:32:01;;;;;;;1.33;0.63;;;;;;;;;;8313689;28;20318;-61
2022/07/06 19:36:02;;;;;;;2.17;0.70;;;;;;;;;;8316171;28;20349;-60
2022/07/06 19:40:02;;;;;;;2.55;0.70;;;;;;;;;;8314457;28;20341;-60
2022/07/06 19:44:02;;;;;;;0.95;0.70;;;;;;;;;;8314253;28;20109;-60
2022/07/06 19:48:03;;;;;;;2.53;0.90;;;;;;;;;;8312275;28;20033;-60
2022/07/06 19:52:04;;;;;;;4.15;0.85;;;;;;;;;;8314070;28;20447;-62
2022/07/06 19:56:05;;;;;;;1.97;0.80;;;;;;;;;;8314672;28;20028;-60
2022/07/06 20:00:06;;;;;;;2.08;0.70;;;;;;;;;;8315558;28;20439;-61
2022/07/06 20:04:06;;;;;;;1.95;0.80;;;;;;;;;;8315190;28;20032;-60
2022/07/06 20:08:06;;;;;;;1.67;0.70;;;;;;;;;;8315539;28;20063;-60
2022/07/06 20:12:06;;;;;;;0.95;0.70;;;;;;;;;;8315082;28;20022;-60
2022/07/06 20:16:07;;;;;;;0.60;0.60;;;;;;;;;;8313633;28;20037;-60
2022/07/06 20:20:07;;;;;;;1.40;0.70;;;;;;;;;;8315103;28;20037;-61
2022/07/06 20:24:08;;;;;;;3.22;0.63;;;;;;;;;;8314383;28;20040;-60
2022/07/06 20:28:08;;;;;;;3.20;0.85;;;;;;;;;;8312699;28;20036;-60
2022/07/06 20:32:08;;;;;;;1.70;0.80;;;;;;;;;;8312262;28;20145;-60
2022/07/06 20:36:09;;;;;;;2.65;0.70;;;;;;;;;;8313347;28;20599;-60
2022/07/06 20:40:09;;;;;;;1.75;0.75;;;;;;;;;;8310638;28;20335;-61
2022/07/06 20:44:10;;;;;;;4.40;0.80;;;;;;;;;;8318336;28;20078;-61
2022/07/06 20:48:10;;;;;;;2.83;0.90;;;;;;;;;;8314857;28;20175;-60
2022/07/06 20:52:10;;;;;;;2.28;0.70;;;;;;;;;;8313919;28;20336;-61
2022/07/06 20:56:10;;;;;;;4.43;0.95;;;;;;;;;;8308650;28;20025;-61
2022/07/06 21:00:11;;;;;;;1.75;0.80;;;;;;;;;;8312710;28;20044;-60
2022/07/06 21:04:11;;;;;;;1.15;0.70;;;;;;;;;;8316634;28;20039;-60
2022/07/06 21:08:11;;;;;;;1.90;0.70;;;;;;;;;;8319829;28;20072;-60
2022/07/06 21:12:11;;;;;;;5.43;0.80;;;;;;;;;;8314405;28;20028;-61
2022/07/06 21:16:12;;;;;;;1.00;0.80;;;;;;;;;;8312533;28;20315;-60
2022/07/06 21:20:12;;;;;;;1.63;0.80;;;;;;;;;;8316536;28;20027;-60
2022/07/06 21:24:12;;;;;;;3.88;0.80;;;;;;;;;;8313582;28;20033;-60
2022/07/06 21:28:12;;;;;;;4.97;0.80;;;;;;;;;;8317332;28;20036;-60
2022/07/06 21:32:13;;;;;;;2.63;1.00;;;;;;;;;;8312828;28;20045;-60
2022/07/06 21:36:13;;;;;;;3.88;0.75;;;;;;;;;;8313822;28;20154;-60
2022/07/06 21:40:13;;;;;;;1.90;0.70;;;;;;;;;;8312885;28;20025;-60
2022/07/06 21:44:15;;;;;;;2.28;0.75;;;;;;;;;;8312500;28;20163;-60
2022/07/06 21:48:15;;;;;;;2.60;0.85;;;;;;;;;;8313738;28;20372;-61
2022/07/06 21:52:16;;;;;;;2.25;0.80;;;;;;;;;;8313961;28;20115;-60
2022/07/06 21:56:16;;;;;;;1.20;0.70;;;;;;;;;;8312865;28;20606;-60
2022/07/06 22:00:17;;;;;;;2.90;0.70;;;;;;;;;;8311151;28;20032;-61
2022/07/06 22:04:17;;;;;;;0.93;0.75;;;;;;;;;;8311023;28;20033;-60
2022/07/06 22:08:17;;;;;;;3.42;0.80;;;;;;;;;;8314959;28;20043;-60
2022/07/06 22:12:17;;;;;;;7.40;0.80;;;;;;;;;;8309100;28;20481;-61
2022/07/06 22:16:18;;;;;;;0.90;0.65;;;;;;;;;;8313772;28;20072;-60
2022/07/06 22:20:18;;;;;;;1.08;0.70;;;;;;;;;;8311989;28;20249;-60
2022/07/06 22:24:19;;;;;;;1.73;0.80;;;;;;;;;;8314346;28;20142;-60
2022/07/06 22:28:19;;;;;;;0.80;0.80;;;;;;;;;;8310711;28;20030;-60
2022/07/06 22:32:20;;;;;;;3.63;0.90;;;;;;;;;;8314265;28;20139;-60
2022/07/06 22:36:27;;;;;;;2.55;0.70;;;;;;;;;;8311716;28;20521;-60
2022/07/06 22:44:46;;;;;;;1.77;0.70;;;;;;;;;;8312506;28;20062;-60
2022/07/06 22:48:46;;;;;;;3.13;0.88;;;;;;;;;;8312077;28;20610;-61
2022/07/06 22:52:47;;;;;;;1.17;0.80;;;;;;;;;;8313300;28;20033;-61
2022/07/06 22:56:47;;;;;;;4.10;0.90;;;;;;;;;;8314121;28;20053;-60
2022/07/06 23:00:48;;;;;;;2.00;0.77;;;;;;;;;;8318639;28;20114;-61
2022/07/06 23:04:48;;;;;;;4.68;0.82;;;;;;;;;;8319984;28;20426;-60
2022/07/06 23:08:49;;;;;;;0.70;0.70;;;;;;;;;;8322814;28;20406;-60
2022/07/06 23:12:49;;;;;;;1.83;0.70;;;;;;;;;;8316416;28;20029;-60
2022/07/06 23:16:49;;;;;;;1.58;0.82;;;;;;;;;;8318050;28;20037;-60
2022/07/06 23:20:50;;;;;;;1.88;0.70;;;;;;;;;;8320457;28;20542;-61
2022/07/06 23:24:50;;;;;;;1.23;0.70;;;;;;;;;;8320846;28;20373;-60
2022/07/06 23:28:50;;;;;;;1.92;0.73;;;;;;;;;;8318151;28;20029;-60
2022/07/06 23:32:50;;;;;;;0.77;0.70;;;;;;;;;;8313889;28;20302;-60
2022/07/06 23:36:51;;;;;;;2.40;0.80;;;;;;;;;;8317475;28;20029;-60
2022/07/06 23:40:51;;;;;;;1.67;0.85;;;;;;;;;;8319070;28;20375;-60
2022/07/06 23:44:51;;;;;;;1.65;0.80;;;;;;;;;;8317400;28;20562;-60
2022/07/06 23:48:51;;;;;;;3.13;0.85;;;;;;;;;;8317739;28;20037;-60
2022/07/06 23:52:51;;;;;;;1.48;0.80;;;;;;;;;;8316790;28;20037;-60
2022/07/06 23:56:52;;;;;;;1.63;0.90;;;;;;;;;;8317917;28;20087;-60
